sensor_id;sensor_type;location;lat;lon;timestamp;temperature;humidity
4050;DHT22;2039;50.894;6.888;2022-08-19T00:01:57;21.30;97.30
4050;DHT22;2039;50.894;6.888;2022-08-19T00:04:30;21.20;96.90
4050;DHT22;2039;50.894;6.888;2022-08-19T00:06:59;21.20;97.20
4050;DHT22;2039;50.894;6.888;2022-08-19T00:09:25;21.20;97.30
4050;DHT22;2039;50.894;6.888;2022-08-19T00:11:53;21.20;97.30
4050;DHT22;2039;50.894;6.888;2022-08-19T00:14:21;21.20;97.60
4050;DHT22;2039;50.894;6.888;2022-08-19T00:16:48;21.20;98.90
4050;DHT22;2039;50.894;6.888;2022-08-19T00:19:15;21.20;98.60
4050;DHT22;2039;50.894;6.888;2022-08-19T00:21:41;21.20;98.20
4050;DHT22;2039;50.894;6.888;2022-08-19T00:24:12;21.10;98.90
4050;DHT22;2039;50.894;6.888;2022-08-19T00:26:38;21.10;99.40
4050;DHT22;2039;50.894;6.888;2022-08-19T00:29:06;21.10;99.10
4050;DHT22;2039;50.894;6.888;2022-08-19T00:31:32;21.10;99.30
4050;DHT22;2039;50.894;6.888;2022-08-19T00:33:58;21.10;99.10
4050;DHT22;2039;50.894;6.888;2022-08-19T00:36:24;21.10;99.70
4050;DHT22;2039;50.894;6.888;2022-08-19T00:38:50;21.10;99.90
4050;DHT22;2039;50.894;6.888;2022-08-19T00:41:19;21.00;99.90
4050;DHT22;2039;50.894;6.888;2022-08-19T00:46:32;21.00;99.90
4050;DHT22;2039;50.894;6.888;2022-08-19T00:49:00;21.00;99.90
4050;DHT22;2039;50.894;6.888;2022-08-19T00:51:27;21.00;99.90
4050;DHT22;2039;50.894;6.888;2022-08-19T00:53:57;21.00;99.90
4050;DHT22;2039;50.894;6.888;2022-08-19T00:56:24;20.90;99.90
4050;DHT22;2039;50.894;6.888;2022-08-19T00:58:52;20.90;99.90
4050;DHT22;2039;50.894;6.888;2022-08-19T01:01:19;20.90;99.90
4050;DHT22;2039;50.894;6.888;2022-08-19T01:03:45;20.90;99.90
4050;DHT22;2039;50.894;6.888;2022-08-19T01:06:10;20.90;99.90
4050;DHT22;2039;50.894;6.888;2022-08-19T01:08:36;20.90;99.90
4050;DHT22;2039;50.894;6.888;2022-08-19T01:11:02;20.90;99.90
4050;DHT22;2039;50.894;6.888;2022-08-19T01:13:32;20.90;99.90
4050;DHT22;2039;50.894;6.888;2022-08-19T01:16:07;20.80;99.90
4050;DHT22;2039;50.894;6.888;2022-08-19T01:18:37;20.80;99.90
4050;DHT22;2039;50.894;6.888;2022-08-19T01:21:32;20.70;99.90
4050;DHT22;2039;50.894;6.888;2022-08-19T01:24:00;20.70;99.90
4050;DHT22;2039;50.894;6.888;2022-08-19T01:26:27;20.70;99.90
4050;DHT22;2039;50.894;6.888;2022-08-19T01:28:56;20.70;99.90
4050;DHT22;2039;50.894;6.888;2022-08-19T01:31:27;20.70;99.90
4050;DHT22;2039;50.894;6.888;2022-08-19T01:33:56;20.70;99.90
4050;DHT22;2039;50.894;6.888;2022-08-19T01:36:33;20.70;99.90
4050;DHT22;2039;50.894;6.888;2022-08-19T01:39:02;20.60;99.90
4050;DHT22;2039;50.894;6.888;2022-08-19T01:41:28;20.60;99.90
4050;DHT22;2039;50.894;6.888;2022-08-19T01:43:54;20.50;99.90
4050;DHT22;2039;50.894;6.888;2022-08-19T01:46:22;20.50;99.90
4050;DHT22;2039;50.894;6.888;2022-08-19T01:48:47;20.40;99.90
4050;DHT22;2039;50.894;6.888;2022-08-19T01:51:13;20.40;99.90
4050;DHT22;2039;50.894;6.888;2022-08-19T01:53:40;20.50;99.90
4050;DHT22;2039;50.894;6.888;2022-08-19T01:56:06;20.50;99.90
4050;DHT22;2039;50.894;6.888;2022-08-19T01:58:38;20.50;99.90
4050;DHT22;2039;50.894;6.888;2022-08-19T02:01:06;20.50;99.90
4050;DHT22;2039;50.894;6.888;2022-08-19T02:03:32;20.50;99.90
4050;DHT22;2039;50.894;6.888;2022-08-19T02:05:59;20.40;99.90
4050;DHT22;2039;50.894;6.888;2022-08-19T02:08:29;20.40;99.90
4050;DHT22;2039;50.894;6.888;2022-08-19T02:10:56;20.40;99.90
4050;DHT22;2039;50.894;6.888;2022-08-19T02:13:23;20.40;99.90
4050;DHT22;2039;50.894;6.888;2022-08-19T02:15:49;20.30;99.90
4050;DHT22;2039;50.894;6.888;2022-08-19T02:18:14;20.30;99.90
4050;DHT22;2039;50.894;6.888;2022-08-19T02:20:42;20.30;99.90
4050;DHT22;2039;50.894;6.888;2022-08-19T02:23:10;20.30;99.90
4050;DHT22;2039;50.894;6.888;2022-08-19T02:25:36;20.30;99.90
4050;DHT22;2039;50.894;6.888;2022-08-19T02:28:02;20.30;99.90
4050;DHT22;2039;50.894;6.888;2022-08-19T02:30:28;20.20;99.90
4050;DHT22;2039;50.894;6.888;2022-08-19T02:32:54;20.20;99.90
4050;DHT22;2039;50.894;6.888;2022-08-19T02:35:20;20.20;99.90
4050;DHT22;2039;50.894;6.888;2022-08-19T02:37:46;20.20;99.90
4050;DHT22;2039;50.894;6.888;2022-08-19T02:40:31;20.10;99.90
4050;DHT22;2039;50.894;6.888;2022-08-19T02:43:01;20.10;99.90
4050;DHT22;2039;50.894;6.888;2022-08-19T02:45:32;20.10;99.90
4050;DHT22;2039;50.894;6.888;2022-08-19T02:47:58;20.00;99.90
4050;DHT22;2039;50.894;6.888;2022-08-19T02:50:24;20.00;99.90
4050;DHT22;2039;50.894;6.888;2022-08-19T02:52:49;20.00;99.90
4050;DHT22;2039;50.894;6.888;2022-08-19T02:55:15;20.00;99.90
4050;DHT22;2039;50.894;6.888;2022-08-19T02:57:41;20.10;99.90
4050;DHT22;2039;50.894;6.888;2022-08-19T03:00:08;20.00;99.90
4050;DHT22;2039;50.894;6.888;2022-08-19T03:02:37;20.00;99.90
4050;DHT22;2039;50.894;6.888;2022-08-19T03:05:04;20.10;99.90
4050;DHT22;2039;50.894;6.888;2022-08-19T03:07:30;20.00;99.90
4050;DHT22;2039;50.894;6.888;2022-08-19T03:09:56;20.00;99.90
4050;DHT22;2039;50.894;6.888;2022-08-19T03:12:22;20.00;99.90
4050;DHT22;2039;50.894;6.888;2022-08-19T03:14:47;20.00;99.90
4050;DHT22;2039;50.894;6.888;2022-08-19T03:17:13;20.00;99.90
4050;DHT22;2039;50.894;6.888;2022-08-19T03:19:39;19.90;99.90
4050;DHT22;2039;50.894;6.888;2022-08-19T03:22:05;19.90;99.90
4050;DHT22;2039;50.894;6.888;2022-08-19T03:24:31;19.90;99.90
4050;DHT22;2039;50.894;6.888;2022-08-19T03:26:57;19.90;99.90
4050;DHT22;2039;50.894;6.888;2022-08-19T03:29:26;19.90;99.90
4050;DHT22;2039;50.894;6.888;2022-08-19T03:31:52;19.90;99.90
4050;DHT22;2039;50.894;6.888;2022-08-19T03:34:24;19.90;99.90
4050;DHT22;2039;50.894;6.888;2022-08-19T03:36:53;19.90;99.90
4050;DHT22;2039;50.894;6.888;2022-08-19T03:39:20;19.90;99.90
4050;DHT22;2039;50.894;6.888;2022-08-19T03:41:48;19.90;99.90
4050;DHT22;2039;50.894;6.888;2022-08-19T03:44:18;19.90;99.90
4050;DHT22;2039;50.894;6.888;2022-08-19T03:46:47;19.80;99.90
4050;DHT22;2039;50.894;6.888;2022-08-19T03:49:14;19.70;99.90
4050;DHT22;2039;50.894;6.888;2022-08-19T03:51:40;19.80;99.90
4050;DHT22;2039;50.894;6.888;2022-08-19T03:54:09;19.80;99.90
4050;DHT22;2039;50.894;6.888;2022-08-19T03:56:36;19.80;99.90
4050;DHT22;2039;50.894;6.888;2022-08-19T03:59:03;19.80;99.90
4050;DHT22;2039;50.894;6.888;2022-08-19T04:01:29;19.70;99.90
4050;DHT22;2039;50.894;6.888;2022-08-19T04:03:56;19.70;99.90
4050;DHT22;2039;50.894;6.888;2022-08-19T04:06:28;19.70;99.90
4050;DHT22;2039;50.894;6.888;2022-08-19T04:08:55;19.70;99.90
4050;DHT22;2039;50.894;6.888;2022-08-19T04:11:26;19.70;99.90
4050;DHT22;2039;50.894;6.888;2022-08-19T04:13:53;19.70;99.90
4050;DHT22;2039;50.894;6.888;2022-08-19T04:16:21;19.70;99.90
4050;DHT22;2039;50.894;6.888;2022-08-19T04:18:48;19.60;99.90
4050;DHT22;2039;50.894;6.888;2022-08-19T04:21:19;19.70;99.90
4050;DHT22;2039;50.894;6.888;2022-08-19T04:23:47;19.70;99.90
4050;DHT22;2039;50.894;6.888;2022-08-19T04:26:17;19.70;99.90
4050;DHT22;2039;50.894;6.888;2022-08-19T04:28:45;19.70;99.90
4050;DHT22;2039;50.894;6.888;2022-08-19T04:31:16;19.70;99.90
4050;DHT22;2039;50.894;6.888;2022-08-19T04:33:42;19.70;99.90
4050;DHT22;2039;50.894;6.888;2022-08-19T04:36:23;19.70;99.90
4050;DHT22;2039;50.894;6.888;2022-08-19T04:38:50;19.70;99.90
4050;DHT22;2039;50.894;6.888;2022-08-19T04:41:18;19.70;99.90
4050;DHT22;2039;50.894;6.888;2022-08-19T04:44:02;19.70;99.90
4050;DHT22;2039;50.894;6.888;2022-08-19T04:46:29;19.70;99.90
4050;DHT22;2039;50.894;6.888;2022-08-19T04:49:01;19.70;99.90
4050;DHT22;2039;50.894;6.888;2022-08-19T04:51:27;19.70;99.90
4050;DHT22;2039;50.894;6.888;2022-08-19T04:53:56;19.70;99.90
4050;DHT22;2039;50.894;6.888;2022-08-19T04:56:22;19.70;99.90
4050;DHT22;2039;50.894;6.888;2022-08-19T04:58:52;19.70;99.90
4050;DHT22;2039;50.894;6.888;2022-08-19T05:01:22;19.70;99.90
4050;DHT22;2039;50.894;6.888;2022-08-19T05:03:49;19.70;99.90
4050;DHT22;2039;50.894;6.888;2022-08-19T05:06:16;19.70;99.90
4050;DHT22;2039;50.894;6.888;2022-08-19T05:08:43;19.70;99.90
4050;DHT22;2039;50.894;6.888;2022-08-19T05:13:40;19.70;99.90
4050;DHT22;2039;50.894;6.888;2022-08-19T05:16:06;19.80;99.90
4050;DHT22;2039;50.894;6.888;2022-08-19T05:18:32;19.80;99.90
4050;DHT22;2039;50.894;6.888;2022-08-19T05:21:18;19.80;99.90
4050;DHT22;2039;50.894;6.888;2022-08-19T05:24:04;19.90;99.90
4050;DHT22;2039;50.894;6.888;2022-08-19T05:26:42;19.90;99.90
4050;DHT22;2039;50.894;6.888;2022-08-19T05:29:09;19.90;99.90
4050;DHT22;2039;50.894;6.888;2022-08-19T05:31:36;19.90;99.90
4050;DHT22;2039;50.894;6.888;2022-08-19T05:34:02;20.00;99.90
4050;DHT22;2039;50.894;6.888;2022-08-19T05:36:35;19.90;99.90
4050;DHT22;2039;50.894;6.888;2022-08-19T05:39:02;19.90;99.90
4050;DHT22;2039;50.894;6.888;2022-08-19T05:41:28;20.00;99.90
4050;DHT22;2039;50.894;6.888;2022-08-19T05:43:55;19.90;99.90
4050;DHT22;2039;50.894;6.888;2022-08-19T05:46:21;19.90;99.90
4050;DHT22;2039;50.894;6.888;2022-08-19T05:48:47;20.00;99.90
4050;DHT22;2039;50.894;6.888;2022-08-19T05:51:14;20.00;99.90
4050;DHT22;2039;50.894;6.888;2022-08-19T05:53:40;20.00;99.90
4050;DHT22;2039;50.894;6.888;2022-08-19T05:56:08;20.00;99.90
4050;DHT22;2039;50.894;6.888;2022-08-19T05:58:35;20.00;99.90
4050;DHT22;2039;50.894;6.888;2022-08-19T06:01:02;20.10;99.90
4050;DHT22;2039;50.894;6.888;2022-08-19T06:03:33;20.10;99.90
4050;DHT22;2039;50.894;6.888;2022-08-19T06:06:00;20.00;99.90
4050;DHT22;2039;50.894;6.888;2022-08-19T06:08:26;20.00;99.90
4050;DHT22;2039;50.894;6.888;2022-08-19T06:10:52;20.10;99.90
4050;DHT22;2039;50.894;6.888;2022-08-19T06:13:18;20.20;99.90
4050;DHT22;2039;50.894;6.888;2022-08-19T06:15:45;20.20;99.90
4050;DHT22;2039;50.894;6.888;2022-08-19T06:18:13;20.20;99.90
4050;DHT22;2039;50.894;6.888;2022-08-19T06:20:39;20.40;99.90
4050;DHT22;2039;50.894;6.888;2022-08-19T06:23:05;20.30;99.90
4050;DHT22;2039;50.894;6.888;2022-08-19T06:25:31;20.30;99.90
4050;DHT22;2039;50.894;6.888;2022-08-19T06:27:57;20.40;99.90
4050;DHT22;2039;50.894;6.888;2022-08-19T06:30:23;20.50;99.90
4050;DHT22;2039;50.894;6.888;2022-08-19T06:32:48;20.60;99.90
4050;DHT22;2039;50.894;6.888;2022-08-19T06:35:15;20.60;99.90
4050;DHT22;2039;50.894;6.888;2022-08-19T06:37:41;20.60;99.90
4050;DHT22;2039;50.894;6.888;2022-08-19T06:40:08;20.70;99.90
4050;DHT22;2039;50.894;6.888;2022-08-19T06:42:36;20.70;99.90
4050;DHT22;2039;50.894;6.888;2022-08-19T06:45:05;20.80;99.90
4050;DHT22;2039;50.894;6.888;2022-08-19T06:47:33;20.80;99.90
4050;DHT22;2039;50.894;6.888;2022-08-19T06:50:00;20.80;99.90
4050;DHT22;2039;50.894;6.888;2022-08-19T06:52:29;20.80;99.90
4050;DHT22;2039;50.894;6.888;2022-08-19T06:54:55;20.80;99.90
4050;DHT22;2039;50.894;6.888;2022-08-19T06:57:25;20.80;99.90
4050;DHT22;2039;50.894;6.888;2022-08-19T06:59:51;20.80;99.90
4050;DHT22;2039;50.894;6.888;2022-08-19T07:02:17;20.90;99.90
4050;DHT22;2039;50.894;6.888;2022-08-19T07:04:43;20.90;99.90
4050;DHT22;2039;50.894;6.888;2022-08-19T07:07:12;20.90;99.90
4050;DHT22;2039;50.894;6.888;2022-08-19T07:09:42;21.00;99.90
4050;DHT22;2039;50.894;6.888;2022-08-19T07:12:09;21.00;99.90
4050;DHT22;2039;50.894;6.888;2022-08-19T07:14:36;21.00;99.90
4050;DHT22;2039;50.894;6.888;2022-08-19T07:17:04;21.00;99.90
4050;DHT22;2039;50.894;6.888;2022-08-19T07:19:30;21.00;99.90
4050;DHT22;2039;50.894;6.888;2022-08-19T07:21:57;21.00;99.90
4050;DHT22;2039;50.894;6.888;2022-08-19T07:24:24;21.00;99.90
4050;DHT22;2039;50.894;6.888;2022-08-19T07:26:51;21.00;99.90
4050;DHT22;2039;50.894;6.888;2022-08-19T07:29:18;21.00;99.90
4050;DHT22;2039;50.894;6.888;2022-08-19T07:31:44;21.10;99.90
4050;DHT22;2039;50.894;6.888;2022-08-19T07:34:11;21.10;99.90
4050;DHT22;2039;50.894;6.888;2022-08-19T07:36:40;21.00;99.90
4050;DHT22;2039;50.894;6.888;2022-08-19T07:39:11;21.00;99.90
4050;DHT22;2039;50.894;6.888;2022-08-19T07:41:37;21.10;99.90
4050;DHT22;2039;50.894;6.888;2022-08-19T07:44:05;21.10;99.90
4050;DHT22;2039;50.894;6.888;2022-08-19T07:46:38;21.20;99.90
4050;DHT22;2039;50.894;6.888;2022-08-19T07:49:06;21.20;99.90
4050;DHT22;2039;50.894;6.888;2022-08-19T07:51:32;21.20;99.90
4050;DHT22;2039;50.894;6.888;2022-08-19T07:53:58;21.30;99.90
4050;DHT22;2039;50.894;6.888;2022-08-19T07:56:25;21.30;99.90
4050;DHT22;2039;50.894;6.888;2022-08-19T07:58:52;21.30;99.90
4050;DHT22;2039;50.894;6.888;2022-08-19T08:01:22;21.40;99.90
4050;DHT22;2039;50.894;6.888;2022-08-19T08:03:49;21.40;99.90
4050;DHT22;2039;50.894;6.888;2022-08-19T08:06:34;21.40;99.90
4050;DHT22;2039;50.894;6.888;2022-08-19T08:09:32;21.40;99.90
4050;DHT22;2039;50.894;6.888;2022-08-19T08:12:06;21.50;99.90
4050;DHT22;2039;50.894;6.888;2022-08-19T08:14:37;21.60;99.90
4050;DHT22;2039;50.894;6.888;2022-08-19T08:17:04;21.70;99.90
4050;DHT22;2039;50.894;6.888;2022-08-19T08:19:31;21.80;99.90
4050;DHT22;2039;50.894;6.888;2022-08-19T08:21:58;21.80;99.90
4050;DHT22;2039;50.894;6.888;2022-08-19T08:24:27;21.90;99.90
4050;DHT22;2039;50.894;6.888;2022-08-19T08:26:53;21.90;99.90
4050;DHT22;2039;50.894;6.888;2022-08-19T08:29:19;21.90;99.90
4050;DHT22;2039;50.894;6.888;2022-08-19T08:31:45;22.00;99.90
4050;DHT22;2039;50.894;6.888;2022-08-19T08:34:13;22.10;99.90
4050;DHT22;2039;50.894;6.888;2022-08-19T08:36:40;22.10;99.90
4050;DHT22;2039;50.894;6.888;2022-08-19T08:39:12;22.20;99.90
4050;DHT22;2039;50.894;6.888;2022-08-19T08:44:40;22.30;99.90
4050;DHT22;2039;50.894;6.888;2022-08-19T08:47:15;22.50;99.90
4050;DHT22;2039;50.894;6.888;2022-08-19T08:49:56;22.50;99.90
4050;DHT22;2039;50.894;6.888;2022-08-19T08:52:33;22.60;99.90
4050;DHT22;2039;50.894;6.888;2022-08-19T08:55:10;22.80;99.90
4050;DHT22;2039;50.894;6.888;2022-08-19T09:00:29;23.10;99.90
4050;DHT22;2039;50.894;6.888;2022-08-19T09:02:56;23.20;98.70
4050;DHT22;2039;50.894;6.888;2022-08-19T09:05:26;23.30;95.30
4050;DHT22;2039;50.894;6.888;2022-08-19T09:08:07;23.40;96.20
4050;DHT22;2039;50.894;6.888;2022-08-19T09:10:38;23.50;95.50
4050;DHT22;2039;50.894;6.888;2022-08-19T09:16:06;23.50;87.60
4050;DHT22;2039;50.894;6.888;2022-08-19T09:19:03;23.60;83.60
4050;DHT22;2039;50.894;6.888;2022-08-19T09:21:31;23.60;73.00
4050;DHT22;2039;50.894;6.888;2022-08-19T09:23:57;23.70;74.00
4050;DHT22;2039;50.894;6.888;2022-08-19T09:26:24;23.80;65.40
4050;DHT22;2039;50.894;6.888;2022-08-19T09:28:52;23.80;67.10
4050;DHT22;2039;50.894;6.888;2022-08-19T09:31:25;23.90;66.30
4050;DHT22;2039;50.894;6.888;2022-08-19T09:33:52;24.00;61.10
4050;DHT22;2039;50.894;6.888;2022-08-19T09:36:23;24.20;51.50
4050;DHT22;2039;50.894;6.888;2022-08-19T09:38:50;24.20;51.50
4050;DHT22;2039;50.894;6.888;2022-08-19T09:41:22;24.30;43.40
4050;DHT22;2039;50.894;6.888;2022-08-19T09:43:50;24.30;41.30
4050;DHT22;2039;50.894;6.888;2022-08-19T09:46:21;24.40;45.20
4050;DHT22;2039;50.894;6.888;2022-08-19T09:48:49;24.40;33.70
4050;DHT22;2039;50.894;6.888;2022-08-19T09:51:18;24.50;38.40
4050;DHT22;2039;50.894;6.888;2022-08-19T09:53:46;24.60;31.30
4050;DHT22;2039;50.894;6.888;2022-08-19T09:56:13;24.60;35.40
4050;DHT22;2039;50.894;6.888;2022-08-19T09:58:39;24.70;35.90
4050;DHT22;2039;50.894;6.888;2022-08-19T10:01:07;24.80;30.70
4050;DHT22;2039;50.894;6.888;2022-08-19T10:03:34;24.90;28.20
4050;DHT22;2039;50.894;6.888;2022-08-19T10:06:02;25.00;23.60
4050;DHT22;2039;50.894;6.888;2022-08-19T10:08:31;25.10;21.80
4050;DHT22;2039;50.894;6.888;2022-08-19T10:10:59;25.20;17.50
4050;DHT22;2039;50.894;6.888;2022-08-19T10:13:27;25.30;16.40
4050;DHT22;2039;50.894;6.888;2022-08-19T10:15:56;25.40;12.30
4050;DHT22;2039;50.894;6.888;2022-08-19T10:18:23;25.40;14.30
4050;DHT22;2039;50.894;6.888;2022-08-19T10:20:50;25.50;9.70
4050;DHT22;2039;50.894;6.888;2022-08-19T10:23:18;25.60;10.00
4050;DHT22;2039;50.894;6.888;2022-08-19T10:25:45;25.60;12.20
4050;DHT22;2039;50.894;6.888;2022-08-19T10:28:10;25.80;8.70
4050;DHT22;2039;50.894;6.888;2022-08-19T10:30:38;25.90;1.10
4050;DHT22;2039;50.894;6.888;2022-08-19T10:33:05;25.90;1.00
4050;DHT22;2039;50.894;6.888;2022-08-19T10:35:31;25.90;1.00
4050;DHT22;2039;50.894;6.888;2022-08-19T10:37:57;25.90;1.00
4050;DHT22;2039;50.894;6.888;2022-08-19T10:40:26;25.90;1.00
4050;DHT22;2039;50.894;6.888;2022-08-19T10:42:54;26.10;1.00
4050;DHT22;2039;50.894;6.888;2022-08-19T10:45:21;26.30;1.00
4050;DHT22;2039;50.894;6.888;2022-08-19T10:47:52;26.30;1.00
4050;DHT22;2039;50.894;6.888;2022-08-19T10:50:18;26.40;1.00
4050;DHT22;2039;50.894;6.888;2022-08-19T10:53:07;26.30;1.00
4050;DHT22;2039;50.894;6.888;2022-08-19T10:55:36;26.20;1.00
4050;DHT22;2039;50.894;6.888;2022-08-19T10:58:21;26.30;1.00
4050;DHT22;2039;50.894;6.888;2022-08-19T11:00:55;26.40;1.00
4050;DHT22;2039;50.894;6.888;2022-08-19T11:03:22;26.50;1.00
4050;DHT22;2039;50.894;6.888;2022-08-19T11:06:03;26.50;1.00
4050;DHT22;2039;50.894;6.888;2022-08-19T11:08:29;26.40;1.00
4050;DHT22;2039;50.894;6.888;2022-08-19T11:10:59;26.30;1.00
4050;DHT22;2039;50.894;6.888;2022-08-19T11:13:38;26.20;1.00
4050;DHT22;2039;50.894;6.888;2022-08-19T11:16:12;26.10;1.00
4050;DHT22;2039;50.894;6.888;2022-08-19T11:18:42;26.20;1.00
4050;DHT22;2039;50.894;6.888;2022-08-19T11:23:39;26.00;1.00
4050;DHT22;2039;50.894;6.888;2022-08-19T11:26:05;26.00;1.00
4050;DHT22;2039;50.894;6.888;2022-08-19T11:28:31;26.20;1.00
4050;DHT22;2039;50.894;6.888;2022-08-19T11:30:57;26.50;1.00
4050;DHT22;2039;50.894;6.888;2022-08-19T11:33:22;26.80;1.00
4050;DHT22;2039;50.894;6.888;2022-08-19T11:35:48;27.10;1.00
4050;DHT22;2039;50.894;6.888;2022-08-19T11:38:14;27.40;1.00
4050;DHT22;2039;50.894;6.888;2022-08-19T11:40:40;27.70;1.00
4050;DHT22;2039;50.894;6.888;2022-08-19T11:43:07;28.00;1.00
4050;DHT22;2039;50.894;6.888;2022-08-19T11:45:35;28.40;1.00
4050;DHT22;2039;50.894;6.888;2022-08-19T11:48:01;28.70;1.00
4050;DHT22;2039;50.894;6.888;2022-08-19T11:50:27;28.80;1.00
4050;DHT22;2039;50.894;6.888;2022-08-19T11:52:54;28.60;1.00
4050;DHT22;2039;50.894;6.888;2022-08-19T11:55:21;28.40;1.00
4050;DHT22;2039;50.894;6.888;2022-08-19T11:57:46;28.50;1.00
4050;DHT22;2039;50.894;6.888;2022-08-19T12:00:13;28.40;1.00
4050;DHT22;2039;50.894;6.888;2022-08-19T12:02:39;28.40;1.00
4050;DHT22;2039;50.894;6.888;2022-08-19T12:05:06;28.40;1.00
4050;DHT22;2039;50.894;6.888;2022-08-19T12:07:33;28.40;1.00
4050;DHT22;2039;50.894;6.888;2022-08-19T12:10:00;28.40;1.00
4050;DHT22;2039;50.894;6.888;2022-08-19T12:12:26;28.50;1.00
4050;DHT22;2039;50.894;6.888;2022-08-19T12:14:52;28.30;1.00
4050;DHT22;2039;50.894;6.888;2022-08-19T12:17:24;28.20;1.00
4050;DHT22;2039;50.894;6.888;2022-08-19T12:19:51;28.10;1.00
4050;DHT22;2039;50.894;6.888;2022-08-19T12:22:16;28.00;1.00
4050;DHT22;2039;50.894;6.888;2022-08-19T12:24:42;28.20;1.00
4050;DHT22;2039;50.894;6.888;2022-08-19T12:27:08;28.40;1.00
4050;DHT22;2039;50.894;6.888;2022-08-19T12:29:34;28.50;1.00
4050;DHT22;2039;50.894;6.888;2022-08-19T12:31:59;28.60;1.00
4050;DHT22;2039;50.894;6.888;2022-08-19T12:34:29;28.70;1.00
4050;DHT22;2039;50.894;6.888;2022-08-19T12:36:57;28.70;1.00
4050;DHT22;2039;50.894;6.888;2022-08-19T12:39:23;29.00;1.00
4050;DHT22;2039;50.894;6.888;2022-08-19T12:41:49;29.20;1.00
4050;DHT22;2039;50.894;6.888;2022-08-19T12:44:15;29.40;1.00
4050;DHT22;2039;50.894;6.888;2022-08-19T12:46:42;29.10;1.00
4050;DHT22;2039;50.894;6.888;2022-08-19T12:49:07;28.60;1.00
4050;DHT22;2039;50.894;6.888;2022-08-19T12:51:33;28.00;1.00
4050;DHT22;2039;50.894;6.888;2022-08-19T12:53:59;27.60;1.00
4050;DHT22;2039;50.894;6.888;2022-08-19T12:56:24;27.40;1.00
4050;DHT22;2039;50.894;6.888;2022-08-19T12:58:50;27.50;1.00
4050;DHT22;2039;50.894;6.888;2022-08-19T13:01:17;27.80;1.00
4050;DHT22;2039;50.894;6.888;2022-08-19T13:03:45;28.10;1.00
4050;DHT22;2039;50.894;6.888;2022-08-19T13:06:11;28.40;1.00
4050;DHT22;2039;50.894;6.888;2022-08-19T13:08:38;28.10;1.00
4050;DHT22;2039;50.894;6.888;2022-08-19T13:11:15;28.10;1.00
4050;DHT22;2039;50.894;6.888;2022-08-19T13:13:44;28.20;1.00
4050;DHT22;2039;50.894;6.888;2022-08-19T13:16:11;28.50;1.00
4050;DHT22;2039;50.894;6.888;2022-08-19T13:18:38;28.50;1.00
4050;DHT22;2039;50.894;6.888;2022-08-19T13:21:05;28.60;1.00
4050;DHT22;2039;50.894;6.888;2022-08-19T13:23:32;28.70;1.00
4050;DHT22;2039;50.894;6.888;2022-08-19T13:25:59;28.70;1.00
4050;DHT22;2039;50.894;6.888;2022-08-19T13:28:25;28.60;1.00
4050;DHT22;2039;50.894;6.888;2022-08-19T13:30:52;28.50;1.00
4050;DHT22;2039;50.894;6.888;2022-08-19T13:33:36;28.40;1.00
4050;DHT22;2039;50.894;6.888;2022-08-19T13:36:03;28.50;1.00
4050;DHT22;2039;50.894;6.888;2022-08-19T13:38:33;28.60;1.00
4050;DHT22;2039;50.894;6.888;2022-08-19T13:41:04;28.70;1.00
4050;DHT22;2039;50.894;6.888;2022-08-19T13:43:30;28.70;1.00
4050;DHT22;2039;50.894;6.888;2022-08-19T13:45:55;28.80;1.00
4050;DHT22;2039;50.894;6.888;2022-08-19T13:48:22;28.80;1.00
4050;DHT22;2039;50.894;6.888;2022-08-19T13:50:48;28.90;1.00
4050;DHT22;2039;50.894;6.888;2022-08-19T13:53:15;29.00;1.00
4050;DHT22;2039;50.894;6.888;2022-08-19T13:55:42;29.00;1.00
4050;DHT22;2039;50.894;6.888;2022-08-19T13:58:09;29.10;1.00
4050;DHT22;2039;50.894;6.888;2022-08-19T14:00:39;29.20;1.00
4050;DHT22;2039;50.894;6.888;2022-08-19T14:03:05;29.30;1.00
4050;DHT22;2039;50.894;6.888;2022-08-19T14:05:31;29.30;1.00
4050;DHT22;2039;50.894;6.888;2022-08-19T14:07:57;29.20;1.00
4050;DHT22;2039;50.894;6.888;2022-08-19T14:10:25;29.10;1.00
4050;DHT22;2039;50.894;6.888;2022-08-19T14:12:55;29.10;1.00
4050;DHT22;2039;50.894;6.888;2022-08-19T14:15:23;29.10;1.00
4050;DHT22;2039;50.894;6.888;2022-08-19T14:17:49;28.90;1.00
4050;DHT22;2039;50.894;6.888;2022-08-19T14:20:15;28.80;1.00
4050;DHT22;2039;50.894;6.888;2022-08-19T14:22:42;28.70;1.00
4050;DHT22;2039;50.894;6.888;2022-08-19T14:25:11;28.60;1.00
4050;DHT22;2039;50.894;6.888;2022-08-19T14:27:38;28.70;1.00
4050;DHT22;2039;50.894;6.888;2022-08-19T14:30:06;28.70;1.00
4050;DHT22;2039;50.894;6.888;2022-08-19T14:32:32;28.60;1.00
4050;DHT22;2039;50.894;6.888;2022-08-19T14:34:59;28.50;1.00
4050;DHT22;2039;50.894;6.888;2022-08-19T14:37:25;28.50;1.00
4050;DHT22;2039;50.894;6.888;2022-08-19T14:39:50;28.50;1.00
4050;DHT22;2039;50.894;6.888;2022-08-19T14:42:16;28.60;1.00
4050;DHT22;2039;50.894;6.888;2022-08-19T14:44:42;28.70;1.00
4050;DHT22;2039;50.894;6.888;2022-08-19T14:47:08;28.70;1.00
4050;DHT22;2039;50.894;6.888;2022-08-19T14:49:34;28.80;1.00
4050;DHT22;2039;50.894;6.888;2022-08-19T14:52:00;28.80;1.00
4050;DHT22;2039;50.894;6.888;2022-08-19T14:54:26;28.80;1.00
4050;DHT22;2039;50.894;6.888;2022-08-19T14:56:52;28.80;1.00
4050;DHT22;2039;50.894;6.888;2022-08-19T14:59:18;28.80;1.00
4050;DHT22;2039;50.894;6.888;2022-08-19T15:01:44;29.00;1.00
4050;DHT22;2039;50.894;6.888;2022-08-19T15:04:10;28.90;1.00
4050;DHT22;2039;50.894;6.888;2022-08-19T15:06:35;28.90;1.00
4050;DHT22;2039;50.894;6.888;2022-08-19T15:09:03;28.90;1.00
4050;DHT22;2039;50.894;6.888;2022-08-19T15:11:29;29.00;1.00
4050;DHT22;2039;50.894;6.888;2022-08-19T15:13:58;29.00;1.00
4050;DHT22;2039;50.894;6.888;2022-08-19T15:16:25;29.00;1.00
4050;DHT22;2039;50.894;6.888;2022-08-19T15:18:55;28.90;1.00
4050;DHT22;2039;50.894;6.888;2022-08-19T15:21:22;29.00;1.00
4050;DHT22;2039;50.894;6.888;2022-08-19T15:23:49;29.20;1.00
4050;DHT22;2039;50.894;6.888;2022-08-19T15:26:17;29.20;1.00
4050;DHT22;2039;50.894;6.888;2022-08-19T15:28:43;29.10;1.00
4050;DHT22;2039;50.894;6.888;2022-08-19T15:31:09;29.10;1.00
4050;DHT22;2039;50.894;6.888;2022-08-19T15:33:38;29.10;1.00
4050;DHT22;2039;50.894;6.888;2022-08-19T15:36:08;29.20;1.00
4050;DHT22;2039;50.894;6.888;2022-08-19T15:38:34;29.20;1.00
4050;DHT22;2039;50.894;6.888;2022-08-19T15:41:01;29.40;1.00
4050;DHT22;2039;50.894;6.888;2022-08-19T15:43:47;29.40;1.00
4050;DHT22;2039;50.894;6.888;2022-08-19T15:46:18;29.50;1.00
4050;DHT22;2039;50.894;6.888;2022-08-19T15:48:46;29.40;1.00
4050;DHT22;2039;50.894;6.888;2022-08-19T15:51:12;29.50;1.00
4050;DHT22;2039;50.894;6.888;2022-08-19T15:53:39;29.50;1.00
4050;DHT22;2039;50.894;6.888;2022-08-19T15:56:06;29.60;1.00
4050;DHT22;2039;50.894;6.888;2022-08-19T15:58:32;29.50;1.00
4050;DHT22;2039;50.894;6.888;2022-08-19T16:01:17;29.50;1.00
4050;DHT22;2039;50.894;6.888;2022-08-19T16:04:01;29.80;1.00
4050;DHT22;2039;50.894;6.888;2022-08-19T16:06:49;30.00;1.00
4050;DHT22;2039;50.894;6.888;2022-08-19T16:09:17;30.30;1.00
4050;DHT22;2039;50.894;6.888;2022-08-19T16:11:44;30.70;1.00
4050;DHT22;2039;50.894;6.888;2022-08-19T16:14:18;31.10;1.00
4050;DHT22;2039;50.894;6.888;2022-08-19T16:16:45;31.20;1.00
4050;DHT22;2039;50.894;6.888;2022-08-19T16:19:13;31.00;1.00
4050;DHT22;2039;50.894;6.888;2022-08-19T16:21:48;30.80;1.00
4050;DHT22;2039;50.894;6.888;2022-08-19T16:24:16;30.50;1.00
4050;DHT22;2039;50.894;6.888;2022-08-19T16:26:43;30.10;1.00
4050;DHT22;2039;50.894;6.888;2022-08-19T16:29:09;29.60;1.00
4050;DHT22;2039;50.894;6.888;2022-08-19T16:31:36;29.30;1.00